Time;durP1;ratioP1;P1;durP2;ratioP2;P2;SDS_P1;SDS_P2;PMS_P1;PMS_P2;Temp;Humidity;BMP_temperature;BMP_pressure;BME280_temperature;BME280_humidity;BME280_pressure;Samples;Min_cycle;Max_cycle;Signal;HPM_P1;HPM_P2
2021/10/12 05:14:52;;;;;;;5.78;0.75;;;16.10;74.50;;;;;;4849032;24;20106;-69
2021/10/12 05:17:38;;;;;;;4.78;0.80;;;16.20;74.10;;;;;;4773320;30;20056;-68
2021/10/12 05:20:04;;;;;;;3.95;0.70;;;16.20;73.80;;;;;;4773551;30;20460;-69
2021/10/12 05:22:31;;;;;;;7.00;1.13;;;16.30;73.80;;;;;;4773044;30;20379;-67
2021/10/12 05:24:57;;;;;;;8.57;1.17;;;16.30;73.70;;;;;;4773351;30;20426;-68
2021/10/12 05:27:23;;;;;;;9.30;1.30;;;16.40;73.90;;;;;;4757983;30;20056;-67
2021/10/12 05:29:49;;;;;;;14.80;1.10;;;16.40;74.00;;;;;;4772916;30;20044;-68
2021/10/12 05:32:15;;;;;;;11.38;0.95;;;16.50;74.90;;;;;;4773349;30;20368;-69
2021/10/12 05:34:41;;;;;;;10.13;0.90;;;16.50;75.40;;;;;;4773268;30;20058;-69
2021/10/12 05:37:07;;;;;;;7.10;1.10;;;16.60;75.70;;;;;;4773357;30;20062;-70
2021/10/12 05:39:32;;;;;;;6.30;1.15;;;16.70;75.50;;;;;;4773047;30;20052;-69
2021/10/12 05:41:58;;;;;;;7.85;1.25;;;16.90;75.30;;;;;;4773181;30;20356;-68
2021/10/12 05:44:24;;;;;;;4.93;0.75;;;17.00;75.80;;;;;;4773034;30;20048;-69
2021/10/12 05:46:50;;;;;;;9.27;1.00;;;17.20;75.10;;;;;;4772828;30;20059;-69
2021/10/12 05:49:15;;;;;;;5.88;0.95;;;17.30;75.00;;;;;;4773377;30;20059;-69
2021/10/12 05:51:44;;;;;;;5.93;1.00;;;17.50;74.90;;;;;;4772768;30;20060;-69
2021/10/12 05:54:14;;;;;;;6.55;0.95;;;17.50;74.80;;;;;;4757014;30;20057;-69
2021/10/12 05:56:43;;;;;;;9.32;0.82;;;17.50;74.70;;;;;;4772808;30;20337;-69
2021/10/12 05:59:09;;;;;;;5.68;0.80;;;17.60;74.70;;;;;;4772432;30;20108;-66
2021/10/12 06:01:36;;;;;;;8.95;0.68;;;17.60;74.70;;;;;;4772756;30;20063;-69
2021/10/12 06:04:02;;;;;;;8.93;1.27;;;17.60;74.70;;;;;;4772469;30;20098;-69
2021/10/12 06:06:28;;;;;;;6.43;1.10;;;17.60;74.60;;;;;;4772946;30;20100;-69
2021/10/12 06:08:54;;;;;;;9.10;1.40;;;17.60;75.40;;;;;;4772771;30;20051;-70
2021/10/12 06:11:19;;;;;;;14.23;1.00;;;17.60;75.00;;;;;;4773006;30;20068;-71
2021/10/12 06:13:47;;;;;;;9.65;1.30;;;17.60;73.90;;;;;;4772784;30;20066;-74
2021/10/12 06:16:13;;;;;;;14.80;1.45;;;17.70;74.60;;;;;;4771673;30;20127;-73
2021/10/12 06:18:39;;;;;;;16.85;0.82;;;17.70;74.60;;;;;;4774676;30;20055;-72
2021/10/12 06:21:04;;;;;;;10.25;0.80;;;17.70;74.30;;;;;;4789366;30;20051;-69
2021/10/12 06:23:31;;;;;;;4.82;0.68;;;17.70;73.80;;;;;;4789922;30;20130;-72
2021/10/12 06:25:57;;;;;;;5.20;0.60;;;17.80;73.30;;;;;;4790096;30;20519;-74
2021/10/12 06:28:23;;;;;;;6.38;0.57;;;17.80;72.70;;;;;;4771710;30;20052;-70
2021/10/12 06:30:49;;;;;;;4.53;0.70;;;17.80;71.90;;;;;;4782493;30;20099;-69
2021/10/12 06:33:15;;;;;;;7.72;1.10;;;17.90;71.10;;;;;;4787085;30;20051;-71
2021/10/12 06:35:42;;;;;;;6.85;0.82;;;18.00;71.00;;;;;;4772984;30;20636;-71
2021/10/12 06:38:08;;;;;;;4.18;0.85;;;18.10;70.90;;;;;;4770211;30;20080;-68
2021/10/12 06:40:34;;;;;;;4.35;0.60;;;18.10;70.20;;;;;;4787043;29;20059;-72
2021/10/12 06:43:00;;;;;;;8.00;0.60;;;18.10;70.80;;;;;;4771547;30;20058;-71
2021/10/12 06:45:26;;;;;;;6.60;0.90;;;18.10;71.10;;;;;;4786875;30;20121;-71
2021/10/12 06:47:52;;;;;;;5.10;0.70;;;18.00;71.20;;;;;;4789733;30;20380;-71
2021/10/12 06:50:19;;;;;;;3.30;0.43;;;18.00;72.10;;;;;;4786420;30;20055;-70
2021/10/12 06:52:46;;;;;;;11.80;0.88;;;18.00;71.80;;;;;;4789429;30;20043;-69
2021/10/12 06:55:14;;;;;;;3.03;0.40;;;18.00;72.00;;;;;;4789229;29;20355;-69
2021/10/12 06:57:40;;;;;;;4.07;0.50;;;18.00;72.20;;;;;;4789294;30;20063;-70
2021/10/12 07:00:08;;;;;;;6.85;0.47;;;18.00;72.50;;;;;;4789261;30;20073;-70
2021/10/12 07:02:34;;;;;;;6.38;0.50;;;18.00;72.70;;;;;;4769660;30;20087;-69
2021/10/12 07:05:00;;;;;;;5.20;0.55;;;18.00;72.80;;;;;;4789910;30;20427;-70
2021/10/12 07:07:25;;;;;;;5.78;0.57;;;17.90;72.80;;;;;;4771438;30;20055;-69
2021/10/12 07:09:51;;;;;;;4.97;0.98;;;17.90;73.00;;;;;;4789691;30;20134;-69
2021/10/12 07:12:17;;;;;;;6.38;0.70;;;17.90;73.10;;;;;;4789040;30;20056;-70
2021/10/12 07:14:43;;;;;;;7.38;0.80;;;17.80;73.30;;;;;;4789314;30;20071;-70
2021/10/12 07:17:09;;;;;;;4.63;0.88;;;17.80;73.50;;;;;;4789838;30;20365;-69
2021/10/12 07:19:35;;;;;;;5.53;0.50;;;17.80;73.60;;;;;;4790595;30;20142;-69
2021/10/12 07:22:00;;;;;;;3.45;0.40;;;17.80;74.00;;;;;;4790152;30;20055;-69
2021/10/12 07:24:26;;;;;;;2.97;0.57;;;17.80;74.10;;;;;;4789311;30;20088;-70
2021/10/12 07:26:53;;;;;;;3.83;1.00;;;17.70;74.30;;;;;;4789862;30;20107;-69
2021/10/12 07:29:20;;;;;;;4.15;0.82;;;17.70;74.40;;;;;;4789508;30;20447;-69
2021/10/12 07:31:46;;;;;;;3.50;0.47;;;17.70;74.60;;;;;;4789268;30;20386;-69
2021/10/12 07:34:11;;;;;;;6.50;0.70;;;17.70;74.70;;;;;;4790460;30;20047;-70
2021/10/12 07:36:37;;;;;;;4.28;0.50;;;17.60;74.80;;;;;;4789756;30;20343;-70
2021/10/12 07:39:05;;;;;;;4.93;0.40;;;17.60;74.80;;;;;;4773779;30;20431;-70
2021/10/12 07:41:33;;;;;;;3.25;0.47;;;17.60;75.00;;;;;;4789316;30;20043;-69
2021/10/12 07:43:59;;;;;;;4.35;0.40;;;17.60;75.00;;;;;;4789028;30;20092;-70
2021/10/12 07:46:25;;;;;;;3.78;0.55;;;17.60;75.20;;;;;;4789120;30;20087;-71
2021/10/12 07:48:57;;;;;;;3.33;0.32;;;17.50;75.30;;;;;;4789339;30;20059;-69
2021/10/12 07:51:24;;;;;;;3.38;0.52;;;17.50;75.30;;;;;;4789279;30;20102;-69
2021/10/12 07:53:51;;;;;;;4.45;0.80;;;17.50;75.40;;;;;;4781809;30;20437;-72
2021/10/12 07:56:35;;;;;;;1.35;0.50;;;17.50;75.40;;;;;;4787676;30;20128;-72
2021/10/12 07:59:03;;;;;;;3.58;0.43;;;17.50;75.40;;;;;;4782329;30;20051;-74
2021/10/12 08:01:30;;;;;;;5.18;0.52;;;17.50;75.50;;;;;;4789282;30;20055;-70
2021/10/12 08:03:56;;;;;;;2.90;0.40;;;17.50;75.40;;;;;;4787324;29;20062;-72
2021/10/12 08:06:22;;;;;;;3.03;0.30;;;17.50;75.30;;;;;;4788528;29;20447;-69
2021/10/12 08:08:48;;;;;;;5.70;0.68;;;17.50;75.20;;;;;;4806246;29;20137;-79
2021/10/12 08:11:16;;;;;;;3.88;0.55;;;17.50;75.10;;;;;;4794957;29;20379;-79
2021/10/12 08:13:42;;;;;;;4.30;0.57;;;17.50;75.20;;;;;;4779464;29;20131;-80
2021/10/12 08:16:09;;;;;;;5.35;1.23;;;17.50;75.20;;;;;;4793843;29;20146;-80
2021/10/12 08:18:36;;;;;;;6.63;0.70;;;17.50;74.80;;;;;;4776275;30;20075;-80
2021/10/12 08:21:02;;;;;;;5.82;0.63;;;17.60;73.80;;;;;;4767735;29;20067;-77
2021/10/12 08:23:28;;;;;;;5.75;0.77;;;17.60;72.90;;;;;;4794414;29;20059;-77
2021/10/12 08:25:54;;;;;;;6.82;0.77;;;17.60;72.00;;;;;;4810573;29;20084;-77
2021/10/12 08:28:20;;;;;;;7.88;1.05;;;17.60;71.20;;;;;;4810362;29;20192;-80
2021/10/12 08:30:46;;;;;;;5.65;0.70;;;17.60;70.70;;;;;;4794802;29;20443;-79
2021/10/12 08:33:11;;;;;;;7.65;0.93;;;17.50;70.40;;;;;;4795727;29;20047;-78
2021/10/12 08:35:37;;;;;;;6.38;1.10;;;17.50;70.20;;;;;;4761631;30;20063;-79
2021/10/12 08:38:03;;;;;;;4.57;1.02;;;17.50;69.90;;;;;;4779342;29;20134;-78
2021/10/12 08:40:31;;;;;;;8.73;1.15;;;17.50;69.50;;;;;;4792585;29;20058;-76
2021/10/12 08:43:00;;;;;;;7.03;1.23;;;17.50;69.40;;;;;;4770350;30;20184;-76
2021/10/12 08:45:26;;;;;;;7.35;1.10;;;17.50;69.30;;;;;;4784690;30;20128;-77
2021/10/12 08:47:52;;;;;;;7.35;0.80;;;17.40;68.90;;;;;;4790992;29;20082;-78
2021/10/12 08:50:22;;;;;;;6.10;0.90;;;17.40;69.40;;;;;;4795089;29;20070;-79
2021/10/12 08:52:48;;;;;;;4.65;1.02;;;17.40;70.00;;;;;;4789719;29;20055;-77
2021/10/12 08:55:19;;;;;;;9.57;1.25;;;17.30;70.80;;;;;;4773883;30;20110;-81
2021/10/12 08:57:46;;;;;;;9.25;1.17;;;17.30;71.20;;;;;;4773556;30;20073;-80
2021/10/12 09:00:16;;;;;;;7.72;1.35;;;17.30;70.20;;;;;;4791629;30;20063;-80
2021/10/12 09:03:29;;;;;;;6.32;1.10;;;17.30;69.00;;;;;;4799488;29;20364;-76
2021/10/12 09:05:59;;;;;;;5.20;0.88;;;17.20;68.20;;;;;;4791158;30;20078;-75
2021/10/12 09:08:28;;;;;;;7.13;0.70;;;17.10;67.50;;;;;;4791213;30;20352;-80
2021/10/12 09:10:55;;;;;;;5.22;0.70;;;17.10;66.90;;;;;;4791234;30;20079;-76
2021/10/12 09:13:21;;;;;;;6.72;1.00;;;17.10;66.80;;;;;;4791182;30;20062;-76
2021/10/12 09:16:05;;;;;;;6.88;0.88;;;17.00;66.30;;;;;;4781584;30;20140;-74
2021/10/12 09:18:46;;;;;;;5.60;0.82;;;17.10;66.40;;;;;;4774131;30;20071;-77
2021/10/12 09:21:14;;;;;;;8.23;1.00;;;17.00;66.70;;;;;;4764645;30;20055;-76
2021/10/12 09:23:41;;;;;;;4.55;0.85;;;17.10;66.20;;;;;;4782938;30;20474;-74
2021/10/12 09:26:18;;;;;;;9.82;0.90;;;17.00;66.20;;;;;;4784692;30;20051;-74
2021/10/12 09:28:44;;;;;;;6.60;1.10;;;17.00;65.80;;;;;;4775215;30;20074;-74
2021/10/12 09:31:09;;;;;;;4.43;0.73;;;17.00;65.40;;;;;;4784676;30;20060;-76
2021/10/12 09:33:49;;;;;;;3.97;0.75;;;17.00;64.90;;;;;;4774608;30;20051;-75
2021/10/12 09:36:33;;;;;;;4.32;0.68;;;17.10;64.00;;;;;;4785603;30;20383;-77
2021/10/12 09:39:00;;;;;;;4.63;0.63;;;17.00;64.50;;;;;;4776002;30;20126;-76
2021/10/12 09:41:27;;;;;;;4.82;0.68;;;17.00;65.20;;;;;;4777323;30;20357;-76
2021/10/12 09:44:15;;;;;;;3.22;0.88;;;17.00;66.20;;;;;;4769784;30;20472;-76
2021/10/12 09:46:46;;;;;;;4.68;0.50;;;17.10;65.90;;;;;;4773974;30;20421;-76
2021/10/12 09:49:16;;;;;;;3.95;0.70;;;17.10;66.00;;;;;;4786440;29;20471;-76
2021/10/12 09:51:43;;;;;;;4.28;0.93;;;17.10;66.40;;;;;;4771642;30;20051;-75
2021/10/12 09:54:32;;;;;;;3.65;0.65;;;17.10;67.30;;;;;;4786909;29;20058;-76
2021/10/12 09:57:02;;;;;;;3.38;0.63;;;17.10;67.30;;;;;;4780103;30;20146;-77
2021/10/12 09:59:30;;;;;;;3.25;0.50;;;17.10;67.20;;;;;;4788499;29;20050;-76
2021/10/12 10:01:56;;;;;;;3.60;0.68;;;17.10;67.90;;;;;;4790284;29;20363;-76
2021/10/12 10:04:23;;;;;;;4.63;0.55;;;17.10;67.20;;;;;;4769732;30;20066;-75
2021/10/12 10:06:57;;;;;;;6.20;0.60;;;17.20;67.30;;;;;;4793072;29;20066;-75
2021/10/12 10:09:23;;;;;;;5.22;0.70;;;17.20;67.60;;;;;;4798705;29;20066;-74
2021/10/12 10:11:50;;;;;;;5.60;0.70;;;17.20;67.70;;;;;;4792421;29;20051;-79
2021/10/12 10:14:17;;;;;;;2.50;0.57;;;17.20;67.60;;;;;;4782080;30;20082;-76
2021/10/12 10:16:49;;;;;;;3.72;0.73;;;17.20;67.80;;;;;;4783992;29;20393;-75
2021/10/12 10:19:19;;;;;;;2.97;0.60;;;17.20;68.10;;;;;;4766613;30;20445;-76
2021/10/12 10:21:48;;;;;;;3.58;0.30;;;17.20;68.20;;;;;;4792098;29;20108;-75
2021/10/12 10:24:22;;;;;;;3.38;0.52;;;17.20;68.30;;;;;;4780015;29;20059;-76
2021/10/12 10:26:49;;;;;;;3.58;0.75;;;17.20;68.40;;;;;;4799158;29;20058;-76
2021/10/12 10:29:21;;;;;;;5.93;0.75;;;17.30;68.60;;;;;;4791570;29;20094;-76
2021/10/12 10:31:54;;;;;;;4.18;0.70;;;17.30;64.50;;;;;;4770522;30;20059;-74
2021/10/12 10:34:34;;;;;;;6.22;0.60;;;17.20;61.00;;;;;;4771997;30;20059;-75
2021/10/12 10:37:18;;;;;;;4.65;0.73;;;17.10;59.60;;;;;;4766348;30;20063;-75
2021/10/12 10:39:46;;;;;;;3.67;0.60;;;17.00;59.50;;;;;;4741449;30;20465;-76
2021/10/12 10:42:27;;;;;;;2.83;0.50;;;17.00;59.00;;;;;;4772039;30;20040;-75
2021/10/12 10:44:54;;;;;;;4.57;1.00;;;16.90;58.90;;;;;;4763627;30;20043;-75
2021/10/12 10:47:42;;;;;;;5.38;0.63;;;16.90;58.50;;;;;;4780560;30;20061;-76
2021/10/12 10:50:28;;;;;;;5.32;0.60;;;16.80;58.90;;;;;;4790198;30;20082;-75
2021/10/12 10:52:58;;;;;;;5.78;0.57;;;16.80;58.70;;;;;;4789770;30;20070;-73
2021/10/12 10:55:28;;;;;;;4.13;0.85;;;16.70;61.70;;;;;;4771378;30;20376;-76
2021/10/12 10:58:18;;;;;;;5.28;0.73;;;16.80;63.60;;;;;;4790074;30;20188;-77
2021/10/12 11:00:51;;;;;;;6.57;2.20;;;16.80;67.10;;;;;;4773291;30;20131;-74
2021/10/12 11:03:35;;;;;;;6.28;2.00;;;16.80;66.60;;;;;;4788438;30;20055;-74
2021/10/12 11:06:15;;;;;;;4.25;1.40;;;16.80;67.00;;;;;;4788503;30;20066;-74
2021/10/12 11:09:02;;;;;;;4.70;1.75;;;16.80;67.40;;;;;;4788730;30;20051;-74
2021/10/12 11:11:36;;;;;;;8.68;1.58;;;16.80;67.00;;;;;;4779146;30;20055;-76
2021/10/12 11:14:03;;;;;;;5.97;1.65;;;16.80;67.30;;;;;;4773769;30;20054;-77
2021/10/12 11:16:34;;;;;;;6.22;1.40;;;16.80;66.90;;;;;;4789535;30;20146;-78
2021/10/12 11:19:01;;;;;;;4.72;1.50;;;16.80;66.90;;;;;;4789461;30;20156;-77
2021/10/12 11:21:27;;;;;;;6.55;1.35;;;16.80;66.80;;;;;;4789016;30;20059;-77
2021/10/12 11:24:02;;;;;;;4.82;1.50;;;16.80;66.70;;;;;;4789569;30;20055;-75
2021/10/12 11:26:29;;;;;;;5.10;1.80;;;16.80;66.90;;;;;;4789525;30;20055;-77
2021/10/12 11:29:03;;;;;;;6.95;1.10;;;16.80;67.10;;;;;;4789408;30;20113;-76
2021/10/12 11:31:30;;;;;;;;;;;16.80;67.10;;;;;;4789868;30;20130;-75
2021/10/12 11:34:02;;;;;;;6.75;1.48;;;16.80;66.90;;;;;;4758764;30;19926;-75
2021/10/12 11:36:32;;;;;;;8.18;1.52;;;16.80;67.30;;;;;;4788706;30;20094;-78
2021/10/12 11:39:04;;;;;;;3.80;0.98;;;16.80;67.80;;;;;;4771223;30;20051;-75
2021/10/12 11:41:38;;;;;;;3.85;1.02;;;16.80;66.90;;;;;;4773270;30;20358;-75
2021/10/12 11:44:15;;;;;;;;;;;16.90;66.70;;;;;;4775643;30;20131;-78
2021/10/12 11:46:48;;;;;;;5.97;1.15;;;16.90;66.10;;;;;;4774878;30;20001;-79
2021/10/12 11:49:16;;;;;;;7.55;0.90;;;16.90;65.00;;;;;;4774719;30;20040;-78
2021/10/12 11:51:45;;;;;;;4.63;0.80;;;16.90;63.40;;;;;;4786383;30;20066;-78
2021/10/12 11:54:12;;;;;;;3.78;0.90;;;16.90;62.10;;;;;;4764361;30;20066;-81
2021/10/12 11:56:39;;;;;;;5.43;0.88;;;16.90;60.70;;;;;;4758922;30;20048;-78
2021/10/12 11:59:09;;;;;;;6.93;1.33;;;16.90;62.00;;;;;;4759936;30;20059;-78
2021/10/12 12:01:39;;;;;;;8.23;1.08;;;16.80;62.60;;;;;;4790566;30;20135;-71
2021/10/12 12:04:06;;;;;;;6.50;1.25;;;16.90;63.40;;;;;;4775028;30;20080;-71
2021/10/12 12:06:34;;;;;;;3.33;0.98;;;16.90;64.20;;;;;;4774936;30;20434;-72
2021/10/12 12:09:04;;;;;;;5.45;1.10;;;16.90;64.50;;;;;;4775403;30;20459;-71
2021/10/12 12:11:31;;;;;;;5.93;0.88;;;16.90;64.60;;;;;;4774619;30;20098;-71
2021/10/12 12:13:59;;;;;;;2.65;0.70;;;16.90;64.90;;;;;;4774483;30;20091;-71
2021/10/12 12:16:31;;;;;;;2.67;0.75;;;16.90;65.10;;;;;;4774535;29;20288;-71
2021/10/12 12:18:56;;;;;;;3.40;0.40;;;16.90;65.30;;;;;;4792554;30;20360;-71
2021/10/12 12:21:31;;;;;;;2.65;0.65;;;16.90;65.50;;;;;;4792641;30;20047;-71
2021/10/12 12:23:59;;;;;;;5.90;0.70;;;16.90;66.00;;;;;;4792722;30;20055;-71
2021/10/12 12:26:29;;;;;;;2.20;0.55;;;16.90;66.10;;;;;;4793087;30;20378;-71
2021/10/12 12:29:15;;;;;;;3.50;0.82;;;16.90;66.30;;;;;;4791883;30;20452;-71
2021/10/12 12:32:01;;;;;;;5.15;1.00;;;16.90;66.90;;;;;;4792113;30;20130;-71
2021/10/12 12:34:34;;;;;;;3.35;0.90;;;16.90;67.00;;;;;;4792055;30;20073;-72
2021/10/12 12:37:02;;;;;;;4.60;0.80;;;16.90;66.90;;;;;;4792233;30;20051;-71
2021/10/12 12:39:38;;;;;;;3.70;0.70;;;16.90;66.80;;;;;;4792066;30;20055;-71
2021/10/12 12:42:08;;;;;;;2.33;0.50;;;16.90;67.10;;;;;;4792175;30;20070;-72
2021/10/12 12:44:34;;;;;;;2.10;0.57;;;16.90;67.40;;;;;;4775225;30;20101;-71
2021/10/12 12:47:03;;;;;;;3.80;0.75;;;16.90;67.50;;;;;;4792862;30;20055;-71
2021/10/12 12:49:30;;;;;;;1.98;0.80;;;16.90;67.60;;;;;;4792393;30;20059;-71
2021/10/12 12:51:57;;;;;;;3.42;1.00;;;16.90;67.80;;;;;;4792410;29;20048;-71
2021/10/12 12:54:48;;;;;;;2.92;0.55;;;16.90;68.00;;;;;;4790722;30;20047;-71
2021/10/12 12:57:19;;;;;;;3.63;0.73;;;16.90;68.20;;;;;;4792044;30;20070;-71
2021/10/12 13:00:00;;;;;;;2.78;0.55;;;16.90;68.10;;;;;;4792705;30;20053;-71
2021/10/12 13:02:27;;;;;;;3.67;0.70;;;16.90;68.30;;;;;;4791830;30;20055;-71
2021/10/12 13:04:53;;;;;;;3.65;0.80;;;16.90;68.20;;;;;;4791893;30;20051;-71
2021/10/12 13:07:18;;;;;;;1.95;0.52;;;16.90;68.30;;;;;;4773170;30;20129;-71
2021/10/12 13:09:47;;;;;;;2.88;0.65;;;16.90;68.40;;;;;;4790595;30;20089;-71
2021/10/12 13:12:15;;;;;;;1.60;0.60;;;16.90;68.40;;;;;;4791631;30;20063;-71
2021/10/12 13:14:45;;;;;;;1.92;0.52;;;16.90;68.60;;;;;;4776089;30;20051;-71
2021/10/12 13:17:13;;;;;;;3.08;0.75;;;16.90;68.70;;;;;;4791632;30;20124;-71
2021/10/12 13:19:39;;;;;;;2.53;0.65;;;16.90;68.80;;;;;;4791894;29;20051;-71
2021/10/12 13:22:04;;;;;;;3.88;0.50;;;16.90;69.00;;;;;;4791608;30;20047;-71
2021/10/12 13:24:30;;;;;;;1.85;0.50;;;16.80;69.10;;;;;;4791419;30;20051;-71
2021/10/12 13:26:56;;;;;;;2.67;0.50;;;16.90;69.20;;;;;;4791264;30;20059;-71
2021/10/12 13:29:21;;;;;;;4.63;0.90;;;16.90;69.40;;;;;;4791284;30;20047;-72
2021/10/12 13:31:47;;;;;;;1.15;0.28;;;16.90;69.40;;;;;;4791562;30;20069;-71
2021/10/12 13:34:13;;;;;;;3.40;0.50;;;16.90;69.20;;;;;;4791543;30;20051;-71
2021/10/12 13:36:39;;;;;;;3.85;0.65;;;16.90;69.40;;;;;;4791373;30;20379;-71
2021/10/12 13:39:04;;;;;;;2.78;0.70;;;16.90;69.30;;;;;;4791402;30;20124;-71
2021/10/12 13:41:32;;;;;;;2.72;0.60;;;16.90;69.40;;;;;;4791988;30;20414;-71
2021/10/12 13:43:59;;;;;;;2.15;0.50;;;16.80;69.30;;;;;;4790539;30;20051;-71
2021/10/12 13:46:25;;;;;;;2.63;0.60;;;16.90;69.30;;;;;;4791054;30;20055;-72
2021/10/12 13:48:50;;;;;;;3.00;0.68;;;16.80;69.50;;;;;;4791015;30;20055;-71
2021/10/12 13:51:16;;;;;;;2.90;0.60;;;16.90;69.70;;;;;;4791322;30;20169;-71
2021/10/12 13:53:42;;;;;;;3.67;0.70;;;16.80;69.70;;;;;;4791086;30;20368;-71
2021/10/12 13:56:08;;;;;;;1.77;0.47;;;16.90;69.70;;;;;;4790629;30;20059;-71
2021/10/12 13:58:34;;;;;;;2.28;0.30;;;16.90;69.60;;;;;;4775785;30;20087;-71
2021/10/12 14:01:00;;;;;;;3.13;0.57;;;16.80;69.60;;;;;;4791494;30;20105;-71
2021/10/12 14:03:26;;;;;;;2.38;0.45;;;16.90;69.80;;;;;;4790677;30;20128;-72
2021/10/12 14:05:52;;;;;;;1.92;0.40;;;16.90;69.80;;;;;;4790186;30;20413;-71
2021/10/12 14:08:18;;;;;;;2.83;0.50;;;16.90;69.90;;;;;;4774212;30;20047;-71
2021/10/12 14:10:44;;;;;;;2.40;0.70;;;16.80;70.00;;;;;;4790497;30;20455;-71
2021/10/12 14:13:10;;;;;;;2.38;0.73;;;16.90;70.00;;;;;;4791096;30;20087;-72
2021/10/12 14:15:36;;;;;;;3.33;1.20;;;16.90;70.10;;;;;;4790357;30;20106;-71
2021/10/12 14:18:02;;;;;;;1.80;0.43;;;16.90;70.10;;;;;;4791193;30;20082;-71
2021/10/12 14:20:28;;;;;;;2.55;0.60;;;16.90;70.20;;;;;;4790586;30;20058;-71
2021/10/12 14:22:53;;;;;;;3.22;0.50;;;16.90;70.20;;;;;;4790608;30;20055;-71
2021/10/12 14:25:23;;;;;;;2.50;0.40;;;16.90;70.00;;;;;;4790544;30;20051;-71
2021/10/12 14:27:49;;;;;;;2.00;0.40;;;16.90;70.00;;;;;;4774735;30;20113;-71
2021/10/12 14:30:16;;;;;;;2.53;0.63;;;16.90;70.10;;;;;;4790582;30;20058;-71
2021/10/12 14:32:42;;;;;;;2.15;0.40;;;16.90;70.00;;;;;;4796642;29;20050;-71
2021/10/12 14:35:08;;;;;;;1.70;0.43;;;16.90;70.00;;;;;;4807819;29;20055;-71
2021/10/12 14:37:34;;;;;;;2.22;0.50;;;16.90;70.20;;;;;;4808438;29;20095;-71
2021/10/12 14:40:03;;;;;;;1.42;0.40;;;16.90;70.10;;;;;;4808727;29;20086;-71
2021/10/12 14:42:30;;;;;;;3.42;0.47;;;16.90;70.10;;;;;;4800891;29;20047;-73
2021/10/12 14:44:56;;;;;;;4.15;0.90;;;16.90;70.10;;;;;;4790136;30;20112;-71
2021/10/12 14:47:21;;;;;;;6.60;1.23;;;16.90;70.00;;;;;;4790570;30;20459;-72
2021/10/12 14:49:47;;;;;;;8.98;1.00;;;16.90;69.20;;;;;;4802326;29;20065;-71
2021/10/12 14:52:13;;;;;;;8.52;0.70;;;17.00;68.80;;;;;;4807904;29;20043;-71
2021/10/12 14:54:39;;;;;;;8.25;0.90;;;17.00;68.10;;;;;;4782964;29;20079;-70
2021/10/12 14:57:04;;;;;;;9.00;0.90;;;17.00;67.70;;;;;;4802645;29;20094;-69
2021/10/12 14:59:30;;;;;;;15.15;1.33;;;17.10;67.70;;;;;;4793184;29;20054;-70
2021/10/12 15:01:58;;;;;;;13.82;1.33;;;17.00;67.70;;;;;;4808207;29;20344;-75
2021/10/12 15:04:24;;;;;;;6.15;0.88;;;17.00;67.90;;;;;;4808179;29;20051;-78
2021/10/12 15:06:54;;;;;;;4.00;0.75;;;17.10;67.90;;;;;;4793913;29;20051;-74
2021/10/12 15:09:20;;;;;;;5.68;0.75;;;17.10;67.80;;;;;;4789983;30;20062;-80
2021/10/12 15:11:49;;;;;;;8.15;1.05;;;17.10;67.90;;;;;;4776546;29;20146;-77
2021/10/12 15:14:15;;;;;;;5.78;1.00;;;17.10;67.60;;;;;;4791937;29;20371;-75
2021/10/12 15:16:44;;;;;;;5.40;0.88;;;17.10;67.40;;;;;;4809929;29;20067;-81
2021/10/12 15:19:14;;;;;;;7.55;1.02;;;17.10;67.10;;;;;;4811452;29;20058;-74
2021/10/12 15:21:44;;;;;;;6.88;1.00;;;17.10;66.60;;;;;;4811482;29;20065;-76
2021/10/12 15:24:11;;;;;;;10.15;0.93;;;17.20;66.10;;;;;;4796047;29;20059;-74
2021/10/12 15:26:38;;;;;;;7.55;1.25;;;17.20;65.70;;;;;;4794149;30;20436;-77
2021/10/12 15:29:05;;;;;;;5.55;0.98;;;17.20;65.30;;;;;;4794053;30;20347;-76
2021/10/12 15:31:31;;;;;;;5.05;0.80;;;17.20;65.00;;;;;;4793903;30;20124;-76
2021/10/12 15:34:00;;;;;;;6.82;1.15;;;17.20;64.30;;;;;;4793405;30;20059;-73
2021/10/12 15:36:25;;;;;;;8.00;0.90;;;17.20;64.50;;;;;;4792422;30;20464;-71
2021/10/12 15:39:14;;;;;;;5.35;0.88;;;17.10;64.60;;;;;;4793019;30;20059;-71
2021/10/12 15:41:40;;;;;;;7.13;0.65;;;17.20;65.10;;;;;;4793249;30;20058;-72
2021/10/12 15:44:06;;;;;;;4.65;0.50;;;17.20;65.50;;;;;;4792840;30;20051;-72
2021/10/12 15:46:32;;;;;;;6.03;0.70;;;17.40;65.70;;;;;;4792982;30;20452;-71
2021/10/12 15:48:58;;;;;;;6.75;0.75;;;17.50;65.80;;;;;;4792815;30;20059;-72
2021/10/12 15:51:24;;;;;;;6.15;0.60;;;17.70;66.00;;;;;;4793315;30;20090;-72
2021/10/12 15:53:50;;;;;;;6.38;0.98;;;17.80;66.00;;;;;;4793508;30;20054;-72
2021/10/12 15:56:15;;;;;;;6.28;0.88;;;18.00;66.10;;;;;;4793010;30;20054;-72
2021/10/12 15:58:41;;;;;;;6.25;0.70;;;18.10;66.30;;;;;;4777186;30;20560;-72
2021/10/12 16:01:07;;;;;;;4.82;0.80;;;18.10;66.40;;;;;;4793496;30;20112;-72
2021/10/12 16:03:35;;;;;;;8.70;1.27;;;18.10;66.50;;;;;;4810051;29;20133;-72
2021/10/12 16:06:01;;;;;;;5.88;0.60;;;18.20;66.90;;;;;;4810793;29;20156;-71
2021/10/12 16:08:27;;;;;;;7.15;0.88;;;18.20;66.90;;;;;;4810910;29;20062;-71
2021/10/12 16:10:52;;;;;;;3.53;0.43;;;18.20;66.90;;;;;;4795034;29;20055;-71
2021/10/12 16:13:18;;;;;;;7.88;0.90;;;18.20;67.10;;;;;;4810824;29;20051;-71
2021/10/12 16:24:01;;;;;;;6.32;0.60;;;18.20;67.90;;;;;;4810688;29;20055;-72
2021/10/12 16:26:27;;;;;;;6.78;0.60;;;18.20;68.10;;;;;;4809549;29;20133;-72
2021/10/12 16:28:53;;;;;;;7.50;0.90;;;18.20;68.20;;;;;;4775077;30;20126;-72
2021/10/12 16:31:18;;;;;;;4.97;0.77;;;18.10;68.30;;;;;;4791939;30;20055;-72
2021/10/12 16:33:44;;;;;;;13.57;1.00;;;18.10;68.60;;;;;;4792481;30;20043;-74
2021/10/12 16:36:10;;;;;;;12.60;1.23;;;18.10;69.50;;;;;;4792249;30;20044;-71
2021/10/12 16:38:37;;;;;;;7.18;0.98;;;18.10;69.00;;;;;;4776326;30;20055;-76
2021/10/12 16:41:03;;;;;;;6.38;0.82;;;18.10;69.10;;;;;;4792091;30;20115;-70
2021/10/12 16:43:29;;;;;;;11.68;1.00;;;18.10;69.00;;;;;;4792001;30;20061;-72
2021/10/12 16:45:55;;;;;;;10.57;1.20;;;18.10;68.90;;;;;;4792025;30;20055;-73
2021/10/12 16:48:21;;;;;;;6.15;0.73;;;18.10;68.90;;;;;;4792015;30;20047;-73
2021/10/12 16:50:47;;;;;;;9.32;1.70;;;18.10;69.10;;;;;;4791708;30;20147;-70
2021/10/12 16:53:13;;;;;;;6.25;0.70;;;18.10;69.20;;;;;;4791980;30;20478;-70
2021/10/12 16:55:39;;;;;;;9.38;0.95;;;18.20;69.20;;;;;;4790977;29;20167;-70
2021/10/12 16:58:06;;;;;;;15.70;1.67;;;18.30;69.30;;;;;;4791647;29;20057;-72
2021/10/12 17:00:33;;;;;;;9.10;0.90;;;18.50;69.30;;;;;;4791376;30;20055;-72
2021/10/12 17:03:04;;;;;;;5.72;1.00;;;18.60;69.00;;;;;;4791626;30;20471;-72
2021/10/12 17:05:32;;;;;;;4.65;0.60;;;18.70;68.80;;;;;;4790952;30;20130;-74
2021/10/12 17:07:58;;;;;;;9.27;1.02;;;18.80;68.70;;;;;;4791749;30;20059;-70
2021/10/12 17:10:24;;;;;;;4.03;0.90;;;18.80;68.50;;;;;;4791388;30;20058;-72
2021/10/12 17:12:52;;;;;;;7.72;1.02;;;18.80;68.40;;;;;;4791404;30;20112;-73
2021/10/12 17:15:19;;;;;;;10.88;0.82;;;18.90;68.40;;;;;;4791014;30;20135;-73
2021/10/12 17:17:49;;;;;;;5.38;0.47;;;19.00;68.40;;;;;;4790943;30;20059;-73
2021/10/12 17:20:15;;;;;;;5.43;0.70;;;19.00;68.40;;;;;;4789964;30;20067;-70
2021/10/12 17:22:41;;;;;;;5.90;0.63;;;19.00;68.30;;;;;;4790833;30;20063;-71
2021/10/12 17:25:07;;;;;;;9.32;0.85;;;19.00;68.30;;;;;;4791647;30;20051;-71
2021/10/12 17:27:33;;;;;;;6.40;0.80;;;19.00;68.30;;;;;;4791310;29;20468;-72
2021/10/12 17:29:59;;;;;;;5.82;0.85;;;18.90;67.10;;;;;;4775677;30;20138;-71
2021/10/12 17:32:28;;;;;;;8.93;1.13;;;18.50;67.10;;;;;;4791419;30;20062;-71
2021/10/12 17:34:53;;;;;;;14.73;1.20;;;18.10;67.70;;;;;;4791076;30;20048;-71
2021/10/12 17:37:26;;;;;;;10.20;0.90;;;18.00;69.10;;;;;;4791054;30;20429;-71
2021/10/12 17:39:51;;;;;;;6.03;0.65;;;18.10;69.80;;;;;;4790982;29;20150;-71
2021/10/12 17:42:17;;;;;;;7.63;1.58;;;18.20;69.80;;;;;;4791313;30;20115;-73
2021/10/12 17:44:46;;;;;;;9.93;1.73;;;18.20;69.40;;;;;;4774542;30;20051;-70
2021/10/12 17:47:12;;;;;;;9.48;0.85;;;17.90;69.90;;;;;;4791019;30;20047;-71
2021/10/12 17:49:38;;;;;;;5.93;0.90;;;17.90;70.20;;;;;;4790735;30;20047;-69
2021/10/12 17:52:04;;;;;;;5.00;0.93;;;18.00;70.10;;;;;;4790865;30;20145;-70
2021/10/12 17:54:43;;;;;;;5.75;0.57;;;18.10;70.10;;;;;;4790495;30;20059;-70
2021/10/12 17:57:09;;;;;;;3.58;0.73;;;18.10;69.90;;;;;;4790928;29;20481;-70
2021/10/12 17:59:35;;;;;;;5.50;0.80;;;18.10;69.80;;;;;;4790902;30;20055;-70
2021/10/12 18:02:01;;;;;;;6.90;0.55;;;18.10;69.70;;;;;;4790304;30;20062;-71
2021/10/12 18:04:28;;;;;;;6.35;0.80;;;18.10;69.70;;;;;;4790407;30;20062;-70
2021/10/12 18:06:53;;;;;;;5.63;0.90;;;18.10;69.70;;;;;;4790715;30;20051;-70
2021/10/12 18:09:20;;;;;;;5.78;1.13;;;18.10;69.70;;;;;;4775005;30;20471;-70
2021/10/12 18:11:46;;;;;;;6.60;1.02;;;18.00;69.80;;;;;;4791162;30;20055;-70
2021/10/12 18:14:14;;;;;;;6.75;0.95;;;17.90;70.20;;;;;;4791316;30;20051;-70